sensor_id;sensor_type;location;lat;lon;timestamp;temperature;humidity
52531;DHT22;38441;52.894;6.040;2023-12-28T00:00:17;9.00;99.90
52531;DHT22;38441;52.894;6.040;2023-12-28T00:02:44;8.90;99.90
52531;DHT22;38441;52.894;6.040;2023-12-28T00:05:09;9.00;99.90
52531;DHT22;38441;52.894;6.040;2023-12-28T00:07:35;9.10;99.90
52531;DHT22;38441;52.894;6.040;2023-12-28T00:10:02;9.20;99.90
52531;DHT22;38441;52.894;6.040;2023-12-28T02:24:25;9.30;99.90
52531;DHT22;38441;52.894;6.040;2023-12-28T04:16:38;9.80;99.90
52531;DHT22;38441;52.894;6.040;2023-12-28T04:21:30;9.80;99.90
52531;DHT22;38441;52.894;6.040;2023-12-28T04:26:22;9.60;99.90
52531;DHT22;38441;52.894;6.040;2023-12-28T06:01:29;10.00;99.90
52531;DHT22;38441;52.894;6.040;2023-12-28T06:03:55;10.10;99.90
52531;DHT22;38441;52.894;6.040;2023-12-28T06:06:20;10.10;99.90
52531;DHT22;38441;52.894;6.040;2023-12-28T07:56:00;10.40;99.90
52531;DHT22;38441;52.894;6.040;2023-12-28T08:00:51;10.30;99.90
52531;DHT22;38441;52.894;6.040;2023-12-28T08:39:54;10.50;99.90
52531;DHT22;38441;52.894;6.040;2023-12-28T08:42:20;10.40;99.90
52531;DHT22;38441;52.894;6.040;2023-12-28T08:44:46;10.20;99.90
52531;DHT22;38441;52.894;6.040;2023-12-28T08:47:12;10.40;99.90
52531;DHT22;38441;52.894;6.040;2023-12-28T08:49:37;10.40;99.90
52531;DHT22;38441;52.894;6.040;2023-12-28T08:52:03;10.40;99.90
52531;DHT22;38441;52.894;6.040;2023-12-28T08:54:29;10.50;99.90
52531;DHT22;38441;52.894;6.040;2023-12-28T08:56:54;10.40;99.90
52531;DHT22;38441;52.894;6.040;2023-12-28T08:59:20;10.30;99.90
52531;DHT22;38441;52.894;6.040;2023-12-28T09:04:13;10.40;99.90
52531;DHT22;38441;52.894;6.040;2023-12-28T09:06:39;10.40;99.90
52531;DHT22;38441;52.894;6.040;2023-12-28T09:09:05;10.50;99.90
52531;DHT22;38441;52.894;6.040;2023-12-28T09:11:31;10.40;99.90
52531;DHT22;38441;52.894;6.040;2023-12-28T09:13:57;10.40;99.90
52531;DHT22;38441;52.894;6.040;2023-12-28T09:23:41;10.50;99.90
52531;DHT22;38441;52.894;6.040;2023-12-28T09:26:07;10.60;99.90
52531;DHT22;38441;52.894;6.040;2023-12-28T09:28:34;10.50;99.90
52531;DHT22;38441;52.894;6.040;2023-12-28T09:31:03;10.40;99.90
52531;DHT22;38441;52.894;6.040;2023-12-28T09:33:28;10.30;99.90
52531;DHT22;38441;52.894;6.040;2023-12-28T09:35:54;10.30;99.90
52531;DHT22;38441;52.894;6.040;2023-12-28T09:38:20;10.40;99.90
52531;DHT22;38441;52.894;6.040;2023-12-28T09:40:47;10.50;99.90
52531;DHT22;38441;52.894;6.040;2023-12-28T09:43:25;10.50;99.90
52531;DHT22;38441;52.894;6.040;2023-12-28T09:45:51;10.50;99.90
52531;DHT22;38441;52.894;6.040;2023-12-28T09:48:18;10.60;99.90
52531;DHT22;38441;52.894;6.040;2023-12-28T09:50:51;10.60;99.90
52531;DHT22;38441;52.894;6.040;2023-12-28T09:53:28;10.50;99.90
52531;DHT22;38441;52.894;6.040;2023-12-28T09:55:55;10.60;99.90
52531;DHT22;38441;52.894;6.040;2023-12-28T09:58:21;10.50;99.90
52531;DHT22;38441;52.894;6.040;2023-12-28T10:00:49;10.50;99.90
52531;DHT22;38441;52.894;6.040;2023-12-28T10:03:16;10.50;99.90
52531;DHT22;38441;52.894;6.040;2023-12-28T10:05:46;10.60;99.90
52531;DHT22;38441;52.894;6.040;2023-12-28T10:08:13;10.60;99.90
52531;DHT22;38441;52.894;6.040;2023-12-28T10:10:40;10.70;99.90
52531;DHT22;38441;52.894;6.040;2023-12-28T10:13:10;10.50;99.90
52531;DHT22;38441;52.894;6.040;2023-12-28T10:15:36;10.30;99.90
52531;DHT22;38441;52.894;6.040;2023-12-28T10:18:06;10.60;99.90
52531;DHT22;38441;52.894;6.040;2023-12-28T10:20:32;10.60;99.90
52531;DHT22;38441;52.894;6.040;2023-12-28T10:22:58;10.60;99.90
52531;DHT22;38441;52.894;6.040;2023-12-28T10:25:24;10.60;99.90
52531;DHT22;38441;52.894;6.040;2023-12-28T10:30:20;10.80;99.90
52531;DHT22;38441;52.894;6.040;2023-12-28T10:32:47;10.50;99.90
52531;DHT22;38441;52.894;6.040;2023-12-28T10:35:13;10.60;99.90
52531;DHT22;38441;52.894;6.040;2023-12-28T10:37:40;10.70;99.90
52531;DHT22;38441;52.894;6.040;2023-12-28T10:40:13;10.70;99.90
52531;DHT22;38441;52.894;6.040;2023-12-28T10:45:18;10.60;99.90
52531;DHT22;38441;52.894;6.040;2023-12-28T10:48:07;10.70;99.90
52531;DHT22;38441;52.894;6.040;2023-12-28T10:50:49;10.60;99.90
52531;DHT22;38441;52.894;6.040;2023-12-28T10:56:08;10.70;99.90
52531;DHT22;38441;52.894;6.040;2023-12-28T11:01:55;10.60;99.90
52531;DHT22;38441;52.894;6.040;2023-12-28T11:06:58;10.60;99.90
52531;DHT22;38441;52.894;6.040;2023-12-28T11:09:26;10.60;99.90
52531;DHT22;38441;52.894;6.040;2023-12-28T11:11:57;10.70;99.90
52531;DHT22;38441;52.894;6.040;2023-12-28T11:14:24;10.70;99.90
52531;DHT22;38441;52.894;6.040;2023-12-28T11:16:52;10.70;99.90
52531;DHT22;38441;52.894;6.040;2023-12-28T11:19:19;10.60;99.90
52531;DHT22;38441;52.894;6.040;2023-12-28T11:21:50;10.70;99.90
52531;DHT22;38441;52.894;6.040;2023-12-28T11:24:17;10.70;99.90
52531;DHT22;38441;52.894;6.040;2023-12-28T11:26:43;10.90;99.90
52531;DHT22;38441;52.894;6.040;2023-12-28T11:29:08;10.70;99.90
52531;DHT22;38441;52.894;6.040;2023-12-28T11:31:35;10.80;99.90
52531;DHT22;38441;52.894;6.040;2023-12-28T11:34:04;10.80;99.90
52531;DHT22;38441;52.894;6.040;2023-12-28T11:36:34;10.80;99.90
52531;DHT22;38441;52.894;6.040;2023-12-28T11:39:06;10.70;99.90
52531;DHT22;38441;52.894;6.040;2023-12-28T11:41:38;10.80;99.90
52531;DHT22;38441;52.894;6.040;2023-12-28T11:44:05;10.60;99.90
52531;DHT22;38441;52.894;6.040;2023-12-28T11:46:35;10.80;99.90
52531;DHT22;38441;52.894;6.040;2023-12-28T11:49:04;10.90;99.90
52531;DHT22;38441;52.894;6.040;2023-12-28T11:51:31;10.90;99.90
52531;DHT22;38441;52.894;6.040;2023-12-28T11:53:58;12.30;99.90
52531;DHT22;38441;52.894;6.040;2023-12-28T11:56:25;10.90;99.90
52531;DHT22;38441;52.894;6.040;2023-12-28T11:58:51;10.80;99.90
52531;DHT22;38441;52.894;6.040;2023-12-28T12:01:17;10.80;99.90
52531;DHT22;38441;52.894;6.040;2023-12-28T12:03:43;10.80;99.90
52531;DHT22;38441;52.894;6.040;2023-12-28T12:06:09;10.90;99.90
52531;DHT22;38441;52.894;6.040;2023-12-28T12:08:34;10.80;99.90
52531;DHT22;38441;52.894;6.040;2023-12-28T12:11:01;11.00;99.90
52531;DHT22;38441;52.894;6.040;2023-12-28T12:13:29;10.90;99.90
52531;DHT22;38441;52.894;6.040;2023-12-28T12:15:55;10.70;99.90
52531;DHT22;38441;52.894;6.040;2023-12-28T12:18:22;10.70;99.90
52531;DHT22;38441;52.894;6.040;2023-12-28T12:20:49;10.80;99.90
52531;DHT22;38441;52.894;6.040;2023-12-28T12:23:15;10.80;99.90
52531;DHT22;38441;52.894;6.040;2023-12-28T12:25:41;10.80;99.90
52531;DHT22;38441;52.894;6.040;2023-12-28T12:28:07;10.70;99.90
52531;DHT22;38441;52.894;6.040;2023-12-28T12:33:00;10.60;99.90
52531;DHT22;38441;52.894;6.040;2023-12-28T12:35:27;10.80;99.90
52531;DHT22;38441;52.894;6.040;2023-12-28T12:37:53;10.90;99.90
52531;DHT22;38441;52.894;6.040;2023-12-28T12:40:19;10.80;99.90
52531;DHT22;38441;52.894;6.040;2023-12-28T12:42:55;10.80;99.90
52531;DHT22;38441;52.894;6.040;2023-12-28T12:45:21;10.60;99.90
52531;DHT22;38441;52.894;6.040;2023-12-28T12:47:47;10.80;99.90
52531;DHT22;38441;52.894;6.040;2023-12-28T12:50:14;10.80;99.90
52531;DHT22;38441;52.894;6.040;2023-12-28T12:52:41;10.80;99.90
52531;DHT22;38441;52.894;6.040;2023-12-28T12:55:11;10.70;99.90
52531;DHT22;38441;52.894;6.040;2023-12-28T12:57:37;10.70;99.90
52531;DHT22;38441;52.894;6.040;2023-12-28T13:00:04;10.70;99.90
52531;DHT22;38441;52.894;6.040;2023-12-28T13:02:33;10.70;99.90
52531;DHT22;38441;52.894;6.040;2023-12-28T13:04:59;10.60;99.90
52531;DHT22;38441;52.894;6.040;2023-12-28T13:07:25;10.80;99.90
52531;DHT22;38441;52.894;6.040;2023-12-28T13:09:51;10.70;99.90
52531;DHT22;38441;52.894;6.040;2023-12-28T13:12:16;10.70;99.90
52531;DHT22;38441;52.894;6.040;2023-12-28T13:14:42;10.80;99.90
52531;DHT22;38441;52.894;6.040;2023-12-28T13:17:10;10.80;99.90
52531;DHT22;38441;52.894;6.040;2023-12-28T13:19:36;10.50;99.90
52531;DHT22;38441;52.894;6.040;2023-12-28T13:22:01;10.80;99.90
52531;DHT22;38441;52.894;6.040;2023-12-28T13:24:27;10.60;99.90
52531;DHT22;38441;52.894;6.040;2023-12-28T13:26:53;10.70;99.90
52531;DHT22;38441;52.894;6.040;2023-12-28T13:29:19;10.60;99.90
52531;DHT22;38441;52.894;6.040;2023-12-28T13:31:44;10.60;99.90
52531;DHT22;38441;52.894;6.040;2023-12-28T13:34:12;10.80;99.90
52531;DHT22;38441;52.894;6.040;2023-12-28T13:36:50;10.60;99.90
52531;DHT22;38441;52.894;6.040;2023-12-28T13:39:16;10.70;99.90
52531;DHT22;38441;52.894;6.040;2023-12-28T13:41:43;10.60;99.90
52531;DHT22;38441;52.894;6.040;2023-12-28T13:44:08;10.70;99.90
52531;DHT22;38441;52.894;6.040;2023-12-28T13:46:38;10.70;99.90
52531;DHT22;38441;52.894;6.040;2023-12-28T13:49:04;10.60;99.90
52531;DHT22;38441;52.894;6.040;2023-12-28T13:51:31;10.70;99.90
52531;DHT22;38441;52.894;6.040;2023-12-28T13:53:57;10.60;99.90
52531;DHT22;38441;52.894;6.040;2023-12-28T13:56:23;10.70;99.90
52531;DHT22;38441;52.894;6.040;2023-12-28T13:58:48;10.60;99.90
52531;DHT22;38441;52.894;6.040;2023-12-28T14:01:14;10.60;99.90
52531;DHT22;38441;52.894;6.040;2023-12-28T14:03:40;10.70;99.90
52531;DHT22;38441;52.894;6.040;2023-12-28T14:06:05;10.60;99.90
52531;DHT22;38441;52.894;6.040;2023-12-28T14:08:31;10.70;99.90
52531;DHT22;38441;52.894;6.040;2023-12-28T14:10:57;10.60;99.90
52531;DHT22;38441;52.894;6.040;2023-12-28T14:13:23;10.50;99.90
52531;DHT22;38441;52.894;6.040;2023-12-28T14:15:49;10.70;99.90
52531;DHT22;38441;52.894;6.040;2023-12-28T14:18:14;10.40;99.90
52531;DHT22;38441;52.894;6.040;2023-12-28T14:20:40;10.50;99.90
52531;DHT22;38441;52.894;6.040;2023-12-28T14:23:06;10.50;99.90
52531;DHT22;38441;52.894;6.040;2023-12-28T14:25:32;10.30;99.90
52531;DHT22;38441;52.894;6.040;2023-12-28T14:27:58;10.50;99.90
52531;DHT22;38441;52.894;6.040;2023-12-28T14:30:24;10.30;99.90
52531;DHT22;38441;52.894;6.040;2023-12-28T14:32:50;10.30;99.90
52531;DHT22;38441;52.894;6.040;2023-12-28T14:35:16;10.10;99.90
52531;DHT22;38441;52.894;6.040;2023-12-28T14:37:44;10.20;99.90
52531;DHT22;38441;52.894;6.040;2023-12-28T14:40:10;10.20;99.90
52531;DHT22;38441;52.894;6.040;2023-12-28T14:42:37;10.10;99.90
52531;DHT22;38441;52.894;6.040;2023-12-28T14:45:03;10.10;99.90
52531;DHT22;38441;52.894;6.040;2023-12-28T14:47:29;10.10;99.90
52531;DHT22;38441;52.894;6.040;2023-12-28T14:49:55;10.10;99.90
52531;DHT22;38441;52.894;6.040;2023-12-28T14:52:22;10.30;99.90
52531;DHT22;38441;52.894;6.040;2023-12-28T14:54:47;10.10;99.90
52531;DHT22;38441;52.894;6.040;2023-12-28T14:57:16;10.10;99.90
52531;DHT22;38441;52.894;6.040;2023-12-28T14:59:41;10.20;99.90
52531;DHT22;38441;52.894;6.040;2023-12-28T15:02:07;10.20;99.90
52531;DHT22;38441;52.894;6.040;2023-12-28T15:04:33;10.20;99.90
52531;DHT22;38441;52.894;6.040;2023-12-28T15:06:59;10.20;99.90
52531;DHT22;38441;52.894;6.040;2023-12-28T15:09:25;10.30;99.90
52531;DHT22;38441;52.894;6.040;2023-12-28T15:14:19;10.20;99.90
52531;DHT22;38441;52.894;6.040;2023-12-28T15:16:45;10.40;99.90
52531;DHT22;38441;52.894;6.040;2023-12-28T15:19:12;10.30;99.90
52531;DHT22;38441;52.894;6.040;2023-12-28T15:21:38;10.10;99.90
52531;DHT22;38441;52.894;6.040;2023-12-28T15:24:04;10.10;99.90
52531;DHT22;38441;52.894;6.040;2023-12-28T15:26:30;10.30;99.90
52531;DHT22;38441;52.894;6.040;2023-12-28T15:28:56;10.30;99.90
52531;DHT22;38441;52.894;6.040;2023-12-28T15:31:21;10.20;99.90
52531;DHT22;38441;52.894;6.040;2023-12-28T15:33:47;10.40;99.90
52531;DHT22;38441;52.894;6.040;2023-12-28T15:36:13;10.20;99.90
52531;DHT22;38441;52.894;6.040;2023-12-28T15:38:38;10.20;99.90
52531;DHT22;38441;52.894;6.040;2023-12-28T15:41:04;10.40;99.90
52531;DHT22;38441;52.894;6.040;2023-12-28T15:43:29;10.30;99.90
52531;DHT22;38441;52.894;6.040;2023-12-28T15:45:55;10.30;99.90
52531;DHT22;38441;52.894;6.040;2023-12-28T15:48:21;10.20;99.90
52531;DHT22;38441;52.894;6.040;2023-12-28T15:50:46;10.20;99.90
52531;DHT22;38441;52.894;6.040;2023-12-28T15:53:12;10.30;99.90
52531;DHT22;38441;52.894;6.040;2023-12-28T15:55:37;10.00;99.90
52531;DHT22;38441;52.894;6.040;2023-12-28T15:58:05;10.20;99.90
52531;DHT22;38441;52.894;6.040;2023-12-28T16:00:30;10.10;99.90
52531;DHT22;38441;52.894;6.040;2023-12-28T16:02:56;10.30;99.90
52531;DHT22;38441;52.894;6.040;2023-12-28T16:05:21;10.10;99.90
52531;DHT22;38441;52.894;6.040;2023-12-28T16:07:47;10.20;99.90
52531;DHT22;38441;52.894;6.040;2023-12-28T16:10:13;10.00;99.90
52531;DHT22;38441;52.894;6.040;2023-12-28T16:12:39;10.10;99.90
52531;DHT22;38441;52.894;6.040;2023-12-28T16:15:06;10.00;99.90
52531;DHT22;38441;52.894;6.040;2023-12-28T16:17:32;10.10;99.90
52531;DHT22;38441;52.894;6.040;2023-12-28T16:19:58;10.10;99.90
52531;DHT22;38441;52.894;6.040;2023-12-28T16:22:25;10.30;99.90
52531;DHT22;38441;52.894;6.040;2023-12-28T16:24:50;10.20;99.90
52531;DHT22;38441;52.894;6.040;2023-12-28T16:27:16;10.10;99.90
52531;DHT22;38441;52.894;6.040;2023-12-28T16:29:42;10.10;99.90
52531;DHT22;38441;52.894;6.040;2023-12-28T16:32:07;10.10;99.90
52531;DHT22;38441;52.894;6.040;2023-12-28T16:34:33;10.10;99.90
52531;DHT22;38441;52.894;6.040;2023-12-28T16:37:01;10.10;99.90
52531;DHT22;38441;52.894;6.040;2023-12-28T16:39:27;10.10;99.90
52531;DHT22;38441;52.894;6.040;2023-12-28T16:41:52;10.00;99.90
52531;DHT22;38441;52.894;6.040;2023-12-28T16:44:18;10.20;99.90
52531;DHT22;38441;52.894;6.040;2023-12-28T16:46:45;10.00;99.90
52531;DHT22;38441;52.894;6.040;2023-12-28T16:49:11;10.10;99.90
52531;DHT22;38441;52.894;6.040;2023-12-28T16:51:37;10.20;99.90
52531;DHT22;38441;52.894;6.040;2023-12-28T16:54:02;10.00;99.90
52531;DHT22;38441;52.894;6.040;2023-12-28T16:56:29;10.00;99.90
52531;DHT22;38441;52.894;6.040;2023-12-28T16:58:55;10.20;99.90
52531;DHT22;38441;52.894;6.040;2023-12-28T17:01:20;10.00;99.90
52531;DHT22;38441;52.894;6.040;2023-12-28T17:03:46;10.20;99.90
52531;DHT22;38441;52.894;6.040;2023-12-28T17:06:16;10.30;99.90
52531;DHT22;38441;52.894;6.040;2023-12-28T17:08:43;10.10;99.90
52531;DHT22;38441;52.894;6.040;2023-12-28T17:11:11;10.10;99.90
52531;DHT22;38441;52.894;6.040;2023-12-28T17:13:41;10.10;99.90
52531;DHT22;38441;52.894;6.040;2023-12-28T17:16:07;10.10;99.90
52531;DHT22;38441;52.894;6.040;2023-12-28T17:18:33;10.20;99.90
52531;DHT22;38441;52.894;6.040;2023-12-28T17:20:59;10.20;99.90
52531;DHT22;38441;52.894;6.040;2023-12-28T17:23:31;10.40;99.90
52531;DHT22;38441;52.894;6.040;2023-12-28T17:26:26;10.30;99.90
52531;DHT22;38441;52.894;6.040;2023-12-28T17:29:05;10.30;99.90
52531;DHT22;38441;52.894;6.040;2023-12-28T17:31:32;10.30;99.90
52531;DHT22;38441;52.894;6.040;2023-12-28T17:33:58;10.30;99.90
52531;DHT22;38441;52.894;6.040;2023-12-28T17:36:25;10.30;99.90
52531;DHT22;38441;52.894;6.040;2023-12-28T17:38:53;10.40;99.90
52531;DHT22;38441;52.894;6.040;2023-12-28T17:41:21;10.30;99.90
52531;DHT22;38441;52.894;6.040;2023-12-28T17:43:52;10.30;99.90
52531;DHT22;38441;52.894;6.040;2023-12-28T17:49:06;10.20;99.90
52531;DHT22;38441;52.894;6.040;2023-12-28T17:51:35;10.20;99.90
52531;DHT22;38441;52.894;6.040;2023-12-28T17:54:01;10.20;99.90
52531;DHT22;38441;52.894;6.040;2023-12-28T17:56:28;10.30;99.90
52531;DHT22;38441;52.894;6.040;2023-12-28T17:58:53;10.20;99.90
52531;DHT22;38441;52.894;6.040;2023-12-28T18:01:19;10.20;99.90
52531;DHT22;38441;52.894;6.040;2023-12-28T18:03:45;10.20;99.90
52531;DHT22;38441;52.894;6.040;2023-12-28T18:06:12;10.10;99.90
52531;DHT22;38441;52.894;6.040;2023-12-28T18:08:38;10.20;99.90
52531;DHT22;38441;52.894;6.040;2023-12-28T18:11:03;10.20;99.90
52531;DHT22;38441;52.894;6.040;2023-12-28T18:13:29;10.20;99.90
52531;DHT22;38441;52.894;6.040;2023-12-28T18:15:55;10.30;99.90
52531;DHT22;38441;52.894;6.040;2023-12-28T18:18:21;10.20;99.90
52531;DHT22;38441;52.894;6.040;2023-12-28T18:20:47;10.10;99.90
52531;DHT22;38441;52.894;6.040;2023-12-28T18:23:14;10.30;99.90
52531;DHT22;38441;52.894;6.040;2023-12-28T18:28:05;10.30;99.90
52531;DHT22;38441;52.894;6.040;2023-12-28T18:30:31;10.30;99.90
52531;DHT22;38441;52.894;6.040;2023-12-28T18:32:57;10.30;99.90
52531;DHT22;38441;52.894;6.040;2023-12-28T18:35:22;10.30;99.90
52531;DHT22;38441;52.894;6.040;2023-12-28T18:37:48;10.30;99.90
52531;DHT22;38441;52.894;6.040;2023-12-28T22:39:19;9.70;99.90
52531;DHT22;38441;52.894;6.040;2023-12-28T22:41:45;9.80;99.90
52531;DHT22;38441;52.894;6.040;2023-12-28T22:44:12;9.60;99.90
52531;DHT22;38441;52.894;6.040;2023-12-28T22:46:37;9.70;99.90
52531;DHT22;38441;52.894;6.040;2023-12-28T22:49:03;9.70;99.90
52531;DHT22;38441;52.894;6.040;2023-12-28T22:51:28;9.90;99.90
52531;DHT22;38441;52.894;6.040;2023-12-28T22:53:54;9.70;99.90
52531;DHT22;38441;52.894;6.040;2023-12-28T22:56:20;9.70;99.90
52531;DHT22;38441;52.894;6.040;2023-12-28T22:58:45;9.70;99.90
52531;DHT22;38441;52.894;6.040;2023-12-28T23:01:11;9.70;99.90
52531;DHT22;38441;52.894;6.040;2023-12-28T23:03:36;9.60;99.90
52531;DHT22;38441;52.894;6.040;2023-12-28T23:06:02;10.00;99.90
